createdAt,value
2018-04-17T00:00:21.057Z,26.27
2018-04-17T00:02:48.954Z,26.02
2018-04-17T00:05:16.535Z,23.80
2018-04-17T00:07:44.117Z,25.48
2018-04-17T00:10:12.505Z,25.20
2018-04-17T00:12:40.092Z,24.08
2018-04-17T00:15:07.677Z,24.73
2018-04-17T00:17:35.274Z,24.05
2018-04-17T00:20:02.855Z,24.55
2018-04-17T00:22:31.227Z,23.80
2018-04-17T00:24:58.817Z,23.42
2018-04-17T00:27:26.431Z,24.10
2018-04-17T00:29:54.012Z,23.00
2018-04-17T00:32:21.623Z,22.90
2018-04-17T00:34:49.987Z,22.37
2018-04-17T00:37:17.568Z,22.62
2018-04-17T00:39:45.915Z,21.35
2018-04-17T00:42:13.493Z,21.70
2018-04-17T00:44:41.846Z,21.10
2018-04-17T00:47:09.447Z,20.88
2018-04-17T00:49:37.039Z,20.35
2018-04-17T00:52:04.631Z,21.50
2018-04-17T00:54:32.245Z,19.58
2018-04-17T00:56:59.828Z,20.52
2018-04-17T00:59:28.319Z,19.30
2018-04-17T01:01:55.895Z,19.87
2018-04-17T01:04:23.481Z,19.05
2018-04-17T01:06:51.081Z,19.42
2018-04-17T01:09:18.661Z,19.83
2018-04-17T01:11:46.236Z,19.05
2018-04-17T01:14:14.591Z,18.42
2018-04-17T01:16:42.175Z,18.15
2018-04-17T01:19:10.525Z,18.90
2018-04-17T01:21:38.116Z,18.37
2018-04-17T01:24:06.463Z,17.85
2018-04-17T01:26:34.047Z,18.87
2018-04-17T01:29:02.390Z,17.65
2018-04-17T01:31:29.968Z,18.00
2018-04-17T01:33:58.320Z,18.52
2018-04-17T01:36:25.895Z,16.65
2018-04-17T01:38:53.478Z,17.17
2018-04-17T01:41:21.821Z,17.42
2018-04-17T01:43:49.403Z,17.50
2018-04-17T01:46:17.749Z,16.77
2018-04-17T01:48:45.335Z,16.98
2018-04-17T01:51:13.688Z,15.88
2018-04-17T01:53:41.267Z,16.67
2018-04-17T01:56:09.667Z,17.10
2018-04-17T01:58:37.995Z,16.25
2018-04-17T02:01:05.616Z,16.37
2018-04-17T02:03:33.203Z,15.27
2018-04-17T02:06:00.788Z,16.33
2018-04-17T02:08:28.380Z,15.13
2018-04-17T02:10:55.960Z,14.82
2018-04-17T02:13:23.539Z,14.63
2018-04-17T02:15:51.124Z,14.50
2018-04-17T02:18:19.475Z,14.15
2018-04-17T02:20:47.060Z,14.80
2018-04-17T02:23:15.416Z,14.73
2018-04-17T02:25:43.003Z,14.25
2018-04-17T02:28:11.352Z,14.55
2018-04-17T02:30:38.932Z,14.50
2018-04-17T02:33:07.288Z,13.32
2018-04-17T02:35:34.891Z,14.05
2018-04-17T02:38:02.481Z,13.77
2018-04-17T02:40:30.068Z,13.85
2018-04-17T02:42:57.644Z,13.77
2018-04-17T02:45:26.031Z,13.82
2018-04-17T02:47:53.621Z,12.98
2018-04-17T02:50:21.207Z,13.07
2018-04-17T02:52:48.811Z,12.52
2018-04-17T02:55:16.400Z,12.07
2018-04-17T02:57:43.980Z,12.40
2018-04-17T03:00:11.567Z,13.27
2018-04-17T03:02:39.927Z,13.18
2018-04-17T03:05:07.511Z,11.93
2018-04-17T03:07:35.871Z,12.85
2018-04-17T03:10:04.227Z,12.35
2018-04-17T03:12:31.803Z,11.48
2018-04-17T03:15:00.164Z,11.75
2018-04-17T03:17:28.410Z,11.63
2018-04-17T03:19:55.989Z,12.07
2018-04-17T03:22:23.571Z,11.02
2018-04-17T03:24:52.017Z,11.70
2018-04-17T03:27:19.595Z,11.07
2018-04-17T03:29:47.186Z,11.52
2018-04-17T03:32:14.772Z,11.65
2018-04-17T03:34:42.391Z,11.25
2018-04-17T03:37:10.745Z,11.10
2018-04-17T03:39:38.328Z,11.27
2018-04-17T03:42:06.672Z,11.77
2018-04-17T03:44:34.259Z,11.40
2018-04-17T03:47:02.603Z,10.52
2018-04-17T03:49:30.195Z,9.75
2018-04-17T03:51:58.535Z,11.00
2018-04-17T03:54:26.120Z,9.93
2018-04-17T03:56:54.475Z,10.15
2018-04-17T03:59:22.056Z,9.65
2018-04-17T04:01:50.403Z,9.85
2018-04-17T04:04:17.980Z,9.80
2018-04-17T04:06:45.555Z,9.38
2018-04-17T04:09:13.945Z,9.30
2018-04-17T04:11:41.644Z,9.10
2018-04-17T04:14:09.257Z,9.27
2018-04-17T04:16:49.409Z,9.60
2018-04-17T04:19:29.408Z,9.57
2018-04-17T04:22:08.806Z,8.68
2018-04-17T04:24:49.783Z,8.80
2018-04-17T04:27:17.356Z,8.45
2018-04-17T04:29:44.938Z,8.57
2018-04-17T04:32:12.511Z,8.82
2018-04-17T04:34:40.088Z,8.85
2018-04-17T04:37:08.423Z,8.80
2018-04-17T04:39:36.033Z,8.43
2018-04-17T04:42:04.377Z,8.55
2018-04-17T04:44:31.963Z,10.18
2018-04-17T04:47:00.304Z,9.25
2018-04-17T04:49:27.943Z,10.15
2018-04-17T04:51:55.524Z,10.73
2018-04-17T04:54:23.103Z,11.45
2018-04-17T04:56:51.451Z,11.38
2018-04-17T04:59:19.063Z,13.38
2018-04-17T05:01:46.647Z,15.23
2018-04-17T05:04:14.231Z,17.42
2018-04-17T05:06:41.820Z,18.48
2018-04-17T05:09:10.163Z,19.50
2018-04-17T05:11:37.746Z,19.60
2018-04-17T05:14:06.140Z,19.65
2018-04-17T05:16:33.760Z,21.00
2018-04-17T05:19:01.340Z,22.98
2018-04-17T05:21:29.696Z,22.42
2018-04-17T05:23:57.383Z,27.83
2018-04-17T05:26:25.731Z,30.80
2018-04-17T05:28:53.358Z,33.03
2018-04-17T05:31:20.969Z,32.78
2018-04-17T05:33:49.324Z,33.00
2018-04-17T05:36:16.915Z,34.20
2018-04-17T05:38:45.260Z,36.72
2018-04-17T05:41:12.843Z,36.47
2018-04-17T05:43:41.187Z,37.95
2018-04-17T05:46:08.772Z,38.75
2018-04-17T05:48:37.140Z,40.47
2018-04-17T05:51:04.736Z,40.22
2018-04-17T05:53:32.319Z,41.35
2018-04-17T05:55:59.976Z,42.17
2018-04-17T05:58:28.315Z,44.05
2018-04-17T06:00:56.673Z,48.33
2018-04-17T06:03:24.312Z,54.63
2018-04-17T06:05:51.935Z,55.95
2018-04-17T06:08:19.548Z,57.53
2018-04-17T06:10:47.142Z,62.40
2018-04-17T06:13:14.731Z,61.75
2018-04-17T06:15:42.336Z,67.05
2018-04-17T06:18:10.683Z,66.32
2018-04-17T06:20:38.325Z,65.20
2018-04-17T06:23:05.917Z,64.82
2018-04-17T06:25:33.507Z,63.95
2018-04-17T06:28:01.089Z,63.50
2018-04-17T06:30:28.677Z,64.50
2018-04-17T06:32:56.267Z,62.65
2018-04-17T06:35:24.616Z,66.30
2018-04-17T06:37:52.199Z,64.47
2018-04-17T06:40:20.551Z,63.87
2018-04-17T06:42:48.136Z,66.07
2018-04-17T06:45:16.488Z,64.60
2018-04-17T06:47:44.266Z,63.70
2018-04-17T06:50:11.731Z,65.90
2018-04-17T06:52:40.149Z,64.72
2018-04-17T06:55:08.455Z,65.07
2018-04-17T06:57:36.051Z,64.53
2018-04-17T07:00:03.767Z,65.68
2018-04-17T07:02:31.355Z,64.70
2018-04-17T07:04:59.701Z,65.10
2018-04-17T07:07:27.287Z,62.88
2018-04-17T07:09:55.636Z,63.97
2018-04-17T07:12:23.220Z,64.22
2018-04-17T07:14:51.574Z,64.55
2018-04-17T07:17:19.156Z,61.50
2018-04-17T07:19:47.567Z,61.50
2018-04-17T07:22:15.156Z,60.67
2018-04-17T07:24:42.744Z,59.42
2018-04-17T07:27:11.100Z,59.03
2018-04-17T07:29:38.728Z,60.92
2018-04-17T07:32:06.308Z,57.53
2018-04-17T07:34:33.935Z,59.22
2018-04-17T07:37:01.531Z,58.00
2018-04-17T07:39:29.176Z,58.92
2018-04-17T07:41:56.778Z,59.20
2018-04-17T07:44:25.136Z,58.00
2018-04-17T07:47:04.592Z,56.30
2018-04-17T07:49:32.987Z,56.03
2018-04-17T07:52:00.575Z,54.65
2018-04-17T07:54:28.209Z,54.50
2018-04-17T07:56:56.536Z,53.40
2018-04-17T07:59:24.125Z,54.72
2018-04-17T08:01:52.480Z,54.63
2018-04-17T08:04:20.067Z,54.35
2018-04-17T08:06:48.417Z,52.90
2018-04-17T08:09:16.003Z,52.40
2018-04-17T08:11:44.364Z,53.92
2018-04-17T08:14:12.724Z,50.80
2018-04-17T08:16:40.316Z,50.53
2018-04-17T08:19:07.901Z,49.50
2018-04-17T08:21:35.492Z,49.83
2018-04-17T08:24:03.128Z,49.55
2018-04-17T08:26:30.715Z,50.38
2018-04-17T08:28:58.340Z,48.50
2018-04-17T08:31:25.924Z,49.20
2018-04-17T08:33:53.513Z,49.33
2018-04-17T08:36:21.864Z,47.45
2018-04-17T08:38:49.460Z,48.85
2018-04-17T08:41:17.092Z,46.45
2018-04-17T08:43:44.715Z,44.08
2018-04-17T08:46:12.300Z,42.78
2018-04-17T08:48:39.889Z,43.00
2018-04-17T08:51:08.240Z,43.58
2018-04-17T08:53:35.832Z,41.78
2018-04-17T08:56:03.422Z,42.10
2018-04-17T08:58:31.007Z,41.55
2018-04-17T09:00:58.592Z,40.08
2018-04-17T09:03:26.940Z,40.42
2018-04-17T09:05:54.537Z,40.72
2018-04-17T09:08:22.131Z,40.78
2018-04-17T09:10:49.727Z,37.47
2018-04-17T09:13:17.317Z,38.38
2018-04-17T09:15:44.909Z,38.17
2018-04-17T09:18:12.549Z,37.60
2018-04-17T09:20:40.168Z,39.28
2018-04-17T09:23:08.564Z,36.65
2018-04-17T09:25:36.148Z,36.72
2018-04-17T09:28:03.736Z,35.70
2018-04-17T09:30:31.332Z,36.22
2018-04-17T09:32:59.683Z,34.83
2018-04-17T09:35:27.336Z,32.80
2018-04-17T09:37:54.924Z,31.55
2018-04-17T09:40:23.277Z,30.08
2018-04-17T09:42:50.880Z,27.42
2018-04-17T09:45:18.500Z,26.58
2018-04-17T09:47:46.084Z,24.85
2018-04-17T09:50:13.671Z,24.15
2018-04-17T09:52:41.265Z,22.58
2018-04-17T09:55:08.885Z,20.92
2018-04-17T09:57:36.546Z,20.40
2018-04-17T10:00:04.213Z,18.67
2018-04-17T10:02:31.804Z,16.52
2018-04-17T10:04:59.395Z,16.17
2018-04-17T10:07:27.017Z,15.45
2018-04-17T10:09:54.814Z,14.27
2018-04-17T10:12:23.276Z,13.62
2018-04-17T10:14:50.863Z,12.98
2018-04-17T10:17:18.490Z,12.15
2018-04-17T10:19:46.075Z,11.63
2018-04-17T10:22:13.665Z,11.07
2018-04-17T10:24:41.255Z,10.85
2018-04-17T10:27:08.880Z,11.27
2018-04-17T10:29:36.468Z,11.10
2018-04-17T10:32:04.085Z,12.00
2018-04-17T10:34:31.708Z,11.93
2018-04-17T10:37:00.063Z,11.32
2018-04-17T10:39:28.548Z,10.23
2018-04-17T10:41:56.215Z,10.13
2018-04-17T10:44:24.585Z,10.25
2018-04-17T10:46:52.191Z,10.27
2018-04-17T10:49:19.785Z,9.32
2018-04-17T10:51:47.366Z,9.05
2018-04-17T10:54:14.956Z,8.77
2018-04-17T10:56:42.542Z,8.38
2018-04-17T10:59:10.156Z,7.70
2018-04-17T11:01:38.559Z,7.47
2018-04-17T11:04:06.243Z,7.75
2018-04-17T11:06:33.824Z,7.78
2018-04-17T11:09:01.416Z,7.07
2018-04-17T11:11:29.763Z,6.37
2018-04-17T11:13:57.388Z,6.20
2018-04-17T11:16:24.968Z,6.12
2018-04-17T11:18:52.560Z,5.70
2018-04-17T11:21:20.919Z,5.37
2018-04-17T11:23:54.438Z,5.32
2018-04-17T11:26:22.776Z,5.40
2018-04-17T11:28:50.371Z,4.80
2018-04-17T11:31:18.720Z,4.60
2018-04-17T11:33:46.371Z,4.70
2018-04-17T11:36:13.959Z,4.45
2018-04-17T11:38:42.310Z,4.40
2018-04-17T11:41:09.893Z,4.20
2018-04-17T11:43:38.246Z,4.07
2018-04-17T11:46:05.840Z,4.10
2018-04-17T11:48:34.179Z,4.10
2018-04-17T11:51:01.819Z,3.90
2018-04-17T11:53:29.395Z,3.83
2018-04-17T11:55:57.027Z,3.47
2018-04-17T11:58:24.625Z,3.50
2018-04-17T12:00:52.212Z,3.70
2018-04-17T12:03:19.797Z,3.80
2018-04-17T12:05:47.379Z,3.20
2018-04-17T12:08:14.964Z,3.65
2018-04-17T12:10:42.580Z,3.60
2018-04-17T12:13:10.161Z,3.53
2018-04-17T12:15:37.741Z,3.60
2018-04-17T12:18:06.096Z,3.85
2018-04-17T12:20:33.683Z,3.30
2018-04-17T12:23:02.033Z,3.80
2018-04-17T12:25:29.616Z,3.97
2018-04-17T12:27:57.971Z,3.90
2018-04-17T12:30:25.597Z,3.83
2018-04-17T12:32:53.180Z,3.60
2018-04-17T12:35:20.800Z,4.00
2018-04-17T12:37:48.408Z,3.85
2018-04-17T12:40:16.000Z,3.70
2018-04-17T12:42:43.667Z,3.55
2018-04-17T12:45:11.252Z,3.78
2018-04-17T12:47:38.880Z,3.72
2018-04-17T12:50:06.543Z,3.83
2018-04-17T12:52:34.123Z,3.42
2018-04-17T12:55:01.769Z,3.67
2018-04-17T12:57:29.351Z,3.95
2018-04-17T12:59:56.936Z,3.85
2018-04-17T13:02:24.518Z,4.20
2018-04-17T13:04:52.859Z,4.05
2018-04-17T13:07:20.453Z,4.00
2018-04-17T13:09:48.801Z,4.57
2018-04-17T13:12:16.431Z,4.70
2018-04-17T13:14:44.009Z,4.45
2018-04-17T13:17:11.671Z,4.07
2018-04-17T13:19:39.265Z,4.62
2018-04-17T13:22:07.625Z,4.40
2018-04-17T13:24:35.240Z,4.78
2018-04-17T13:27:02.816Z,3.95
2018-04-17T13:29:30.409Z,4.35
2018-04-17T13:31:58.800Z,4.35
2018-04-17T13:34:26.455Z,4.07
2018-04-17T13:36:55.061Z,4.43
2018-04-17T13:39:22.703Z,4.30
2018-04-17T13:41:50.303Z,5.28
2018-04-17T13:44:17.907Z,5.87
2018-04-17T13:46:46.256Z,6.93
2018-04-17T13:49:13.924Z,6.75
2018-04-17T13:51:42.288Z,5.93
2018-04-17T13:54:09.983Z,6.43
2018-04-17T13:56:38.343Z,6.12
2018-04-17T13:59:05.940Z,6.22
2018-04-17T14:01:33.546Z,5.47
2018-04-17T14:04:01.124Z,5.62
2018-04-17T14:06:29.625Z,5.25
2018-04-17T14:08:57.243Z,5.55
2018-04-17T14:11:24.829Z,5.85
2018-04-17T14:13:53.171Z,4.95
2018-04-17T14:16:20.779Z,4.80
2018-04-17T14:18:48.366Z,5.22
2018-04-17T14:21:15.949Z,4.80
2018-04-17T14:23:43.536Z,4.90
2018-04-17T14:26:11.944Z,4.68
2018-04-17T14:28:39.519Z,4.80
2018-04-17T14:31:07.104Z,4.70
2018-04-17T14:33:34.700Z,4.60
2018-04-17T14:36:02.292Z,4.90
2018-04-17T14:38:30.756Z,5.05
2018-04-17T14:40:58.433Z,4.37
2018-04-17T14:43:26.154Z,4.70
2018-04-17T14:45:53.711Z,4.97
2018-04-17T14:48:21.326Z,4.65
2018-04-17T14:50:48.911Z,4.82
2018-04-17T14:53:16.495Z,4.97
2018-04-17T14:55:44.073Z,4.43
2018-04-17T14:58:11.659Z,4.72
2018-04-17T15:00:39.244Z,4.28
2018-04-17T15:03:07.601Z,4.30
2018-04-17T15:05:35.190Z,4.20
2018-04-17T15:08:03.542Z,3.85
2018-04-17T15:10:31.121Z,4.30
2018-04-17T15:12:59.463Z,4.57
2018-04-17T15:15:27.077Z,4.30
2018-04-17T15:17:54.659Z,3.95
2018-04-17T15:20:22.245Z,3.50
2018-04-17T15:22:49.839Z,3.87
2018-04-17T15:25:18.184Z,3.70
2018-04-17T15:27:45.805Z,4.18
2018-04-17T15:30:13.385Z,3.55
2018-04-17T15:32:40.979Z,3.50
2018-04-17T15:35:09.327Z,3.67
2018-04-17T15:37:36.964Z,3.72
2018-04-17T15:40:04.521Z,3.90
2018-04-17T15:42:32.103Z,4.50
2018-04-17T15:44:59.721Z,5.10
2018-04-17T15:47:27.304Z,6.82
2018-04-17T15:49:54.907Z,7.37
2018-04-17T15:52:23.252Z,9.75
2018-04-17T15:54:50.856Z,10.77
2018-04-17T15:57:19.204Z,11.63
2018-04-17T15:59:46.820Z,12.52
2018-04-17T16:02:14.409Z,14.48
2018-04-17T16:04:41.993Z,15.93
2018-04-17T16:07:10.401Z,18.00
2018-04-17T16:09:38.053Z,19.27
2018-04-17T16:12:05.660Z,20.17
2018-04-17T16:14:33.283Z,20.52
2018-04-17T16:17:00.912Z,21.52
2018-04-17T16:19:29.360Z,22.58
2018-04-17T16:21:56.958Z,22.98
2018-04-17T16:24:24.609Z,23.67
2018-04-17T16:26:52.984Z,25.33
2018-04-17T16:29:21.480Z,24.17
2018-04-17T16:31:49.240Z,25.37
2018-04-17T16:34:16.844Z,27.17
2018-04-17T16:36:44.511Z,26.70
2018-04-17T16:39:13.074Z,27.02
2018-04-17T16:41:40.821Z,27.33
2018-04-17T16:44:08.475Z,27.45
2018-04-17T16:46:36.104Z,26.52
2018-04-17T16:49:04.517Z,28.50
2018-04-17T16:51:32.115Z,26.75
2018-04-17T16:53:59.706Z,26.80
2018-04-17T16:56:28.057Z,26.77
2018-04-17T16:58:55.647Z,27.98
2018-04-17T17:01:23.385Z,26.42
2018-04-17T17:03:50.997Z,25.10
2018-04-17T17:06:18.580Z,27.60
2018-04-17T17:08:46.353Z,28.17
2018-04-17T17:11:14.091Z,28.70
2018-04-17T17:13:41.680Z,27.75
2018-04-17T17:16:09.272Z,27.15
2018-04-17T17:18:36.911Z,28.55
2018-04-17T17:21:04.556Z,28.33
2018-04-17T17:23:32.136Z,29.02
2018-04-17T17:26:00.709Z,28.38
2018-04-17T17:28:29.067Z,29.27
2018-04-17T17:30:56.654Z,29.52
2018-04-17T17:33:25.067Z,28.75
2018-04-17T17:35:52.732Z,32.20
2018-04-17T17:38:20.464Z,34.17
2018-04-17T17:40:48.065Z,36.83
2018-04-17T17:43:15.746Z,37.63
2018-04-17T17:45:43.361Z,38.22
2018-04-17T17:48:11.048Z,39.17
2018-04-17T17:50:38.848Z,39.17
2018-04-17T17:53:07.402Z,39.70
2018-04-17T17:55:35.768Z,41.83
2018-04-17T17:58:03.375Z,40.10
2018-04-17T18:00:31.076Z,40.30
2018-04-17T18:02:58.926Z,40.63
2018-04-17T18:05:26.577Z,40.88
2018-04-17T18:07:54.220Z,39.72
2018-04-17T18:10:21.888Z,38.83
2018-04-17T18:12:49.492Z,40.20
2018-04-17T18:15:17.264Z,39.05
2018-04-17T18:17:44.871Z,36.97
2018-04-17T18:20:12.473Z,37.17
2018-04-17T18:22:40.238Z,38.53
2018-04-17T18:25:07.973Z,37.47
2018-04-17T18:27:35.740Z,38.78
2018-04-17T18:30:03.378Z,38.10
2018-04-17T18:32:30.971Z,35.25
2018-04-17T18:34:58.566Z,35.97
2018-04-17T18:37:27.028Z,35.95
2018-04-17T18:39:54.686Z,34.88
2018-04-17T18:42:23.058Z,36.00
2018-04-17T18:44:50.797Z,36.70
2018-04-17T18:47:18.472Z,36.70
2018-04-17T18:49:46.193Z,36.45
2018-04-17T18:52:13.820Z,37.67
2018-04-17T18:54:42.172Z,37.92
2018-04-17T18:57:09.837Z,37.35
2018-04-17T18:59:37.548Z,37.95
2018-04-17T19:02:05.993Z,37.47
2018-04-17T19:04:34.351Z,38.35
2018-04-17T19:07:01.982Z,40.30
2018-04-17T19:09:29.604Z,39.85
2018-04-17T19:11:57.952Z,39.25
2018-04-17T19:14:25.603Z,39.80
2018-04-17T19:16:53.256Z,38.63
2018-04-17T19:19:20.957Z,38.05
2018-04-17T19:21:48.556Z,39.15
2018-04-17T19:24:16.155Z,40.83
2018-04-17T19:26:44.571Z,39.00
2018-04-17T19:29:12.195Z,39.42
2018-04-17T19:31:39.796Z,37.88
2018-04-17T19:34:08.138Z,39.22
2018-04-17T19:36:35.913Z,39.50
2018-04-17T19:39:03.704Z,39.95
2018-04-17T19:41:31.368Z,40.92
2018-04-17T19:43:58.979Z,41.97
2018-04-17T19:46:27.389Z,44.22
2018-04-17T19:48:55.029Z,43.28
2018-04-17T19:51:22.645Z,45.20
2018-04-17T19:53:50.255Z,45.92
2018-04-17T19:56:17.835Z,43.42
2018-04-17T19:58:45.420Z,44.95
2018-04-17T20:01:13.008Z,44.40
2018-04-17T20:03:41.355Z,45.40
2018-04-17T20:06:09.049Z,44.05
2018-04-17T20:08:36.661Z,43.53
2018-04-17T20:11:04.248Z,43.53
2018-04-17T20:13:31.916Z,43.65
2018-04-17T20:16:00.463Z,44.63
2018-04-17T20:18:28.084Z,42.53
2018-04-17T20:20:55.684Z,42.03
2018-04-17T20:23:23.279Z,41.63
2018-04-17T20:25:51.756Z,42.97
2018-04-17T20:28:20.289Z,42.70
2018-04-17T20:30:47.968Z,41.22
2018-04-17T20:33:15.550Z,40.83
2018-04-17T20:35:43.915Z,41.58
2018-04-17T20:38:11.584Z,40.08
2018-04-17T20:40:39.993Z,41.28
2018-04-17T20:43:07.629Z,40.45
2018-04-17T20:45:35.439Z,40.00
2018-04-17T20:48:03.078Z,38.85
2018-04-17T20:50:30.740Z,39.88
2018-04-17T20:52:58.382Z,40.75
2018-04-17T20:55:26.130Z,39.67
2018-04-17T20:57:54.688Z,40.08
2018-04-17T21:00:22.305Z,39.20
2018-04-17T21:02:49.899Z,38.35
2018-04-17T21:05:17.487Z,40.08
2018-04-17T21:07:45.896Z,39.22
2018-04-17T21:10:13.552Z,39.08
2018-04-17T21:12:41.228Z,39.67
2018-04-17T21:15:08.851Z,38.13
2018-04-17T21:17:37.216Z,38.67
2018-04-17T21:20:05.687Z,37.63
2018-04-17T21:22:33.490Z,38.22
2018-04-17T21:25:01.125Z,38.47
2018-04-17T21:27:30.588Z,36.40
2018-04-17T21:29:58.178Z,38.15
2018-04-17T21:32:26.576Z,38.53
2018-04-17T21:34:54.158Z,37.38
2018-04-17T21:37:21.740Z,35.80
2018-04-17T21:39:49.387Z,36.35
2018-04-17T21:42:17.226Z,36.97
2018-04-17T21:44:44.808Z,36.65
2018-04-17T21:47:12.399Z,36.15
2018-04-17T21:49:40.117Z,36.50
2018-04-17T21:52:07.927Z,35.08
2018-04-17T21:54:36.300Z,35.45
2018-04-17T21:57:03.891Z,36.42
2018-04-17T21:59:31.488Z,35.33
2018-04-17T22:01:59.194Z,35.53
2018-04-17T22:04:27.654Z,35.88
2018-04-17T22:06:55.252Z,36.47
2018-04-17T22:09:22.836Z,35.70
2018-04-17T22:11:50.459Z,35.80
2018-04-17T22:14:18.120Z,35.65
2018-04-17T22:16:46.074Z,34.80
2018-04-17T22:19:13.827Z,35.10
2018-04-17T22:21:42.222Z,34.35
2018-04-17T22:24:09.856Z,34.20
2018-04-17T22:26:37.486Z,34.17
2018-04-17T22:29:05.135Z,34.08
2018-04-17T22:31:32.808Z,33.72
2018-04-17T22:34:00.403Z,34.45
2018-04-17T22:36:28.857Z,33.47
2018-04-17T22:38:56.544Z,32.72
2018-04-17T22:41:25.056Z,32.97
2018-04-17T22:43:52.762Z,33.13
2018-04-17T22:46:20.396Z,31.70
2018-04-17T22:48:48.015Z,32.00
2018-04-17T22:51:15.721Z,32.53
2018-04-17T22:53:43.504Z,33.33
2018-04-17T22:56:11.916Z,32.25
2018-04-17T22:58:39.536Z,32.38
2018-04-17T23:01:07.908Z,31.70
2018-04-17T23:03:35.500Z,32.10
2018-04-17T23:06:03.892Z,32.05
2018-04-17T23:08:31.480Z,32.05
2018-04-17T23:10:59.100Z,31.50
2018-04-17T23:13:27.452Z,31.33
2018-04-17T23:15:55.040Z,31.02
2018-04-17T23:18:23.394Z,31.48
2018-04-17T23:20:51.743Z,31.65
2018-04-17T23:23:19.328Z,31.75
2018-04-17T23:25:46.911Z,30.48
2018-04-17T23:28:14.497Z,31.40
2018-04-17T23:30:42.120Z,31.27
2018-04-17T23:33:10.500Z,30.17
2018-04-17T23:35:38.880Z,30.95
2018-04-17T23:38:06.464Z,30.95
2018-04-17T23:40:34.059Z,29.73
2018-04-17T23:43:01.643Z,29.35
2018-04-17T23:45:29.992Z,29.50
2018-04-17T23:47:57.576Z,30.12
2018-04-17T23:50:25.920Z,29.52
2018-04-17T23:52:53.543Z,29.60
2018-04-17T23:55:21.163Z,28.70
2018-04-17T23:57:49.511Z,28.48
